Amqui, Quebec

7:57 AM AST on March 03, 2015 (GMT -0400)
Camping et marina | Change Station
CLOSE
Current Station
Personal Weather Station
Location: Val-Brillant, QUEBEC
Elevation: 510 ft
Nearby Weather Stations

Elev 510 ft 48.53 °N, 67.55 °W | Updated 3 seconds ago

Mostly Cloudy
Mostly Cloudy
-1.8 °F
Feels Like -2 °F
N
0.0
Wind Variable Wind from North
Gusts 0.0 mph

Today is forecast to be nearly the same temperature as yesterday.

Today
High -- | Low -- °F
--% Chance of Precip.
Yesterday
High -- | Low -- °F
Precip. -- in
7:07 AM 6:16 PM
Waxing Gibbous, 95% visible
Pressure 30.22 in
Visibility 15.0 miles
Clouds Mostly Cloudy 2500 ft
Windchill -2 °F
Dew Point -19 °F
Humidity 43%
Rainfall 0.00 in
Snow Depth Not available.
UV 0 out of 12
Pollen Not available.
Air Quality Not available.
Flu Activity Not available.
METAR CYYY 031100Z 30016G22KT 15SM BKN025 M18/M24 A3021 RMK SC5 SLP234

More Conditions Fewer Conditions

Pressure 30.22 in
Visibility 15.0 miles
Clouds Mostly Cloudy 2500 ft
Windchill -2 °F
Dew Point -19 °F
Humidity 43%
Rainfall 0.00 in
Snow Depth Not available.
UV 0 out of 12
Pollen Not available.
Air Quality Not available.
Flu Activity Not available.
METAR CYYY 031100Z 30016G22KT 15SM BKN025 M18/M24 A3021 RMK SC5 SLP234

More Conditions Fewer Conditions

10-Day Weather Forecast

Almanac

Astronomy

Mar. 03, 2015 Rise Set
Actual Time
Civil Twilight
Nautical Twilight
Astronomical Twilight
Moon
Length of Visible Light
Length of Day
Tomorrow will be .
, % of the Moon is Illuminated

Today's Extremes

Country Highs Country Lows

Community

WunderPhotos

Upload Photos

1,802,090 photos uploaded!

WunderBlogs® & News

Nearby

Air Quality

  Air Quality AQ Index Pollutant
Not available.

Snow Depth

Station Depth Elevation

Earthquake Activity

City Distance Mag. Time & Date
Minimum magnitude displayed is 2.5.

Coastal Water Temperatures

Place Temperature

Nearby Weather Stations